Time,TemperatureF,DewpointF,PressureIn,WindDirection,WindDirectionDegrees,WindSpeedMPH,WindSpeedGustMPH,Humidity,HourlyPrecipIn,Conditions,Clouds,dailyrainin,SoftwareType,DateUTC
2013-03-31 00:30:00,32.6,32.6,19.99,NNW,337,0.0,2.0,100,0.00,,---,0.00,VWS V13.00,2013-03-31 04:30:00,
2013-03-31 01:00:00,32.3,32.3,19.99,NNW,337,0.0,4.0,100,0.00,,---,0.00,VWS V13.00,2013-03-31 05:00:00,
2013-03-31 01:30:00,31.2,31.2,19.99,NNW,337,0.0,4.0,100,0.00,,---,0.00,VWS V13.00,2013-03-31 05:30:00,
2013-03-31 02:00:00,33.5,33.5,19.99,NNW,337,0.0,0.0,100,0.00,,---,0.00,VWS V13.00,2013-03-31 06:00:00,
2013-03-31 02:30:00,32.2,32.2,20.00,NNW,337,0.0,0.0,100,0.00,,---,0.00,VWS V13.00,2013-03-31 06:30:00,
2013-03-31 03:00:00,31.2,31.2,20.00,NNW,337,0.0,0.0,100,0.00,,---,0.00,VWS V13.00,2013-03-31 07:00:00,
2013-03-31 03:30:00,32.2,32.2,19.99,NNW,337,0.0,2.0,100,0.00,,---,0.00,VWS V13.00,2013-03-31 07:30:00,
2013-03-31 04:00:00,32.2,32.2,19.99,NNW,337,0.0,0.0,100,0.00,,---,0.00,VWS V13.00,2013-03-31 08:00:00,
2013-03-31 05:30:00,30.4,30.4,19.99,NNW,337,0.0,1.0,100,0.00,,---,0.00,VWS V13.00,2013-03-31 09:30:00,
2013-03-31 06:00:00,29.9,29.9,19.99,NNW,337,0.0,0.0,100,0.00,,---,0.00,VWS V13.00,2013-03-31 10:00:00,
2013-03-31 06:30:00,29.2,29.2,19.99,NNW,337,0.0,2.0,100,0.00,,---,0.00,VWS V13.00,2013-03-31 10:30:00,
2013-03-31 07:00:00,30.8,30.8,19.99,NNW,337,0.0,5.0,100,0.00,,---,0.00,VWS V13.00,2013-03-31 11:00:00,
2013-03-31 07:30:00,32.2,32.2,19.99,NNW,337,0.0,4.0,100,0.00,,---,0.00,VWS V13.00,2013-03-31 11:30:00,
2013-03-31 08:00:00,33.0,33.0,19.99,NNW,337,0.0,2.0,100,0.00,,---,0.00,VWS V13.00,2013-03-31 12:00:00,
2013-03-31 08:30:00,33.5,33.5,19.99,NNW,337,0.0,3.0,100,0.00,,---,0.00,VWS V13.00,2013-03-31 12:30:00,
2013-03-31 09:00:00,34.5,34.5,20.00,NNW,337,0.0,2.0,100,0.00,,---,0.00,VWS V13.00,2013-03-31 13:00:00,
2013-03-31 09:30:00,35.7,35.7,19.99,NNW,337,0.0,2.0,100,0.00,,---,0.00,VWS V13.00,2013-03-31 13:30:00,
2013-03-31 10:00:00,39.6,39.6,19.99,SE,132,1.0,9.0,100,0.00,,---,0.00,VWS V13.00,2013-03-31 14:00:00,
2013-03-31 10:30:00,41.5,41.5,19.99,SE,135,7.0,11.0,100,0.00,,---,0.00,VWS V13.00,2013-03-31 14:30:00,
2013-03-31 11:00:00,40.7,40.7,19.99,SW,215,3.0,11.0,100,0.00,,---,0.00,VWS V13.00,2013-03-31 15:00:00,
2013-03-31 11:30:00,42.3,42.3,20.00,North,356,1.0,12.0,100,0.00,,---,0.00,VWS V13.00,2013-03-31 15:30:00,
2013-03-31 12:00:00,43.6,43.6,19.99,North,349,2.0,15.0,100,0.00,,---,0.00,VWS V13.00,2013-03-31 16:00:00,
2013-03-31 12:30:00,45.2,45.2,19.99,SE,130,2.0,11.0,100,0.00,,---,0.00,VWS V13.00,2013-03-31 16:30:00,
2013-03-31 13:00:00,47.1,47.1,19.99,SW,215,4.0,20.0,100,0.00,,---,0.00,VWS V13.00,2013-03-31 17:00:00,
2013-03-31 13:30:00,47.0,47.0,19.99,ESE,117,9.0,15.0,100,0.00,,---,0.00,VWS V13.00,2013-03-31 17:30:00,
2013-03-31 14:00:00,46.3,46.3,19.99,South,172,3.0,18.0,100,0.00,,---,0.00,VWS V13.00,2013-03-31 18:00:00,
2013-03-31 14:30:00,46.3,46.3,19.99,South,174,3.0,19.0,100,0.00,,---,0.00,VWS V13.00,2013-03-31 18:30:00,
2013-03-31 15:00:00,45.4,45.4,19.99,SE,145,5.0,21.0,100,0.00,,---,0.00,VWS V13.00,2013-03-31 19:00:00,
2013-03-31 15:30:00,46.1,46.1,19.99,SE,127,12.0,20.0,100,0.00,,---,0.00,VWS V13.00,2013-03-31 19:30:00,
2013-03-31 16:00:00,46.6,46.6,20.00,SSW,198,5.0,18.0,100,0.00,,---,0.00,VWS V13.00,2013-03-31 20:00:00,
2013-03-31 16:30:00,47.4,47.4,19.99,South,191,9.0,19.0,100,0.00,,---,0.00,VWS V13.00,2013-03-31 20:30:00,
2013-03-31 17:00:00,48.4,48.4,19.99,SE,143,13.0,22.0,100,0.00,,---,0.00,VWS V13.00,2013-03-31 21:00:00,
2013-03-31 17:30:00,46.8,46.8,19.99,SSE,157,4.0,18.0,100,0.00,,---,0.00,VWS V13.00,2013-03-31 21:30:00,
2013-03-31 18:00:00,45.3,45.3,20.00,SSE,157,6.0,18.0,100,0.00,,---,0.00,VWS V13.00,2013-03-31 22:00:00,
2013-03-31 18:30:00,43.9,43.9,19.99,SSW,192,12.0,20.0,100,0.00,,---,0.00,VWS V13.00,2013-03-31 22:30:00,
2013-03-31 19:00:00,43.4,43.4,19.99,SW,232,3.0,19.0,100,0.00,,---,0.00,VWS V13.00,2013-03-31 23:00:00,
2013-03-31 19:30:00,42.4,42.4,19.99,South,182,4.0,21.0,100,0.00,,---,0.00,VWS V13.00,2013-03-31 23:30:00,
2013-03-31 20:00:00,39.7,39.7,19.99,SSE,165,7.0,22.0,100,0.00,,---,0.00,VWS V13.00,2013-04-01 00:00:00,
2013-03-31 20:30:00,37.2,37.2,19.99,South,172,3.0,21.0,100,0.00,,---,0.00,VWS V13.00,2013-04-01 00:30:00,
2013-03-31 21:00:00,35.6,35.6,20.00,SE,126,8.0,22.0,100,0.00,,---,0.00,VWS V13.00,2013-04-01 01:00:00,
2013-03-31 21:30:00,34.8,34.8,19.99,SE,127,5.0,20.0,100,0.00,,---,0.00,VWS V13.00,2013-04-01 01:30:00,
2013-03-31 22:00:00,34.8,34.8,20.00,SSE,156,7.0,15.0,100,0.00,,---,0.00,VWS V13.00,2013-04-01 02:00:00,
2013-03-31 22:30:00,35.0,35.0,20.00,SSE,147,4.0,14.0,100,0.00,,---,0.00,VWS V13.00,2013-04-01 02:30:00,
2013-03-31 23:00:00,34.8,34.8,19.99,SE,140,2.0,16.0,100,0.00,,---,0.00,VWS V13.00,2013-04-01 03:00:00,
2013-03-31 23:30:00,34.7,34.7,19.99,SSE,149,5.0,15.0,100,0.00,,---,0.00,VWS V13.00,2013-04-01 03:30:00,